Main page
METAR-TAF:

METAR-TAF

Airports :

Bodø Airport

Bodø, Norway

latitude: 67-16N, longitude: 014-22E, elevation: 1 m

Current weather observation

The report was made 20 minutes ago, at 19:20 UTC
Wind 8 kt from the West
Temperature 18°C
Humidity 64%
Pressure 1013 hPa
Visibility 10 km or more
Few clouds at a height of 5500 ft

METAR: ENBO 251920Z 28008KT 9999 FEW055 18/11 Q1013

Time: 21:40 (19:40 UTC)

Forecast

Forecast valid from 25 at 18 UTC to 26 at 18 UTC
Wind 9 kt from the Southwest
Visibility 10 km or more
no clouds below 1500 m and no cumulonimbus
Becoming
from 26 at 12 UTC to 26 at 14 UTC
Wind 12 kt from the East/Northeast

TAF: ENBO 2518/2618 23009KT CAVOK BECMG 2612/2614 07012KT

Weather observations and forecasts of more than 4000 airports (METAR and TAF reports).

The available stations are represented by yellow and red dots on the map.

Hover mouse over dot to see the name of the station.

Then click to see weather observations and forecasts.

To change the map : click on the green buttons with a black cross to zoom in, on the green button with a dash to zoom out, or on the green arrows for adjacent maps.


METAR-TAF: